Whiting Field Naval Air Station North Airport
KNSE : now visible

Airfield :











YOU CAN JOIN US ON...

 
LOGIN :

Register | Disclaimer

   EN    FR    IT 

 









Legend :    VFR   Marginal VFR   IFR   Intensive IFR   Very Intensive IFR
Visi :
Ceiling :
>= 8 km
>= 3000ft
5 to 8 km
1000 to 3000 ft
1500m to 5 km
500 to 1000 ft
800 to 1500m
200 to 500 ft
< 800m
< 200 ft
Symbols :   Thunderstorms  Fog  Heavy snow  Heavy precipitations  Wind > 20 kt






- Airport Elevation : 199 ft


KNSE - Whiting Field Naval Air Station North

EXPIRED METARs :
  • 240356Z 00000KT 10SM CLR 14/12 A3015 RMK SLP196 T01390117
  • 240256Z 00000KT 10SM CLR 14/12 A3015 RMK SLP196 T01390117 53004
  • 240156Z 16004KT 10SM CLR 16/12 A3013 RMK SLP191 T01560117

TAF TAF KNSE
Valid from the 23 at 23:00 until the 24 at 23:00 UTC


2323/2423 17007KT 9999 SCT045 QNH3013INS
FM240600 VRB05KT 9999 SCT030 QNH3012INS
TEMPO 2408/2411 8000 BR BKN025
FM241500 VRB06KT 9999 FEW040 QNH3018INS
FM241800 23008KT 9999 SCT050 QNH3010INS AUTOMATED SENSOR METWATCH 2404 TIL 2411 TX26/2419Z TN11/2409Z FN20029
KZJX FIR / North America



MET'MAP, your aeronautical weather chart ! - Copyright ORBIFLY December 2007 - Disclaimer

ORBIFLY MET'MAP TEAM :

Programming & Development : Alexandra Zaïnal
Original concept : Baudouin d'Aumeries
Technical & hardware support : Manuel Goepfert
Assistance : Marc-Olivier Méhu




SOURCES & CREDITS :

   NOAA       Earth
Advisory